sensor_id;sensor_type;location;lat;lon;timestamp;pressure;altitude;pressure_sealevel;temperature;humidity
60170;BME280;46042;49.444;6.862;2022-08-18T00:00:18;98251.03;;;20.01;66.86
60170;BME280;46042;49.444;6.862;2022-08-18T00:02:45;98249.56;;;19.99;66.38
60170;BME280;46042;49.444;6.862;2022-08-18T00:05:26;98249.56;;;19.99;68.26
60170;BME280;46042;49.444;6.862;2022-08-18T00:07:56;98247.03;;;19.97;67.49
60170;BME280;46042;49.444;6.862;2022-08-18T00:10:23;98242.38;;;19.91;69.60
60170;BME280;46042;49.444;6.862;2022-08-18T00:12:50;98250.22;;;19.93;69.80
60170;BME280;46042;49.444;6.862;2022-08-18T00:15:24;98248.72;;;19.90;69.89
60170;BME280;46042;49.444;6.862;2022-08-18T00:17:50;98245.69;;;19.85;68.42
60170;BME280;46042;49.444;6.862;2022-08-18T00:20:21;98246.03;;;19.82;68.71
60170;BME280;46042;49.444;6.862;2022-08-18T00:22:48;98246.91;;;19.74;69.15
60170;BME280;46042;49.444;6.862;2022-08-18T00:25:17;98239.72;;;19.74;69.00
60170;BME280;46042;49.444;6.862;2022-08-18T00:27:44;98248.56;;;19.75;69.71
60170;BME280;46042;49.444;6.862;2022-08-18T00:30:14;98245.41;;;19.71;69.25
60170;BME280;46042;49.444;6.862;2022-08-18T00:32:44;98257.59;;;19.74;69.94
60170;BME280;46042;49.444;6.862;2022-08-18T00:35:17;98258.59;;;19.73;69.72
60170;BME280;46042;49.444;6.862;2022-08-18T00:37:45;98259.44;;;19.73;70.06
60170;BME280;46042;49.444;6.862;2022-08-18T00:40:16;98268.13;;;19.75;70.37
60170;BME280;46042;49.444;6.862;2022-08-18T00:42:49;98261.09;;;19.74;68.80
60170;BME280;46042;49.444;6.862;2022-08-18T00:45:27;98254.09;;;19.73;70.88
60170;BME280;46042;49.444;6.862;2022-08-18T00:47:54;98257.28;;;19.69;70.29
60170;BME280;46042;49.444;6.862;2022-08-18T00:53:32;98267.63;;;19.64;71.54
60170;BME280;46042;49.444;6.862;2022-08-18T00:56:15;98268.81;;;19.61;71.15
60170;BME280;46042;49.444;6.862;2022-08-18T00:59:00;98270.97;;;19.57;71.72
60170;BME280;46042;49.444;6.862;2022-08-18T01:01:30;98264.13;;;19.55;70.38
60170;BME280;46042;49.444;6.862;2022-08-18T01:04:06;98281.47;;;19.51;71.37
60170;BME280;46042;49.444;6.862;2022-08-18T01:06:51;98274.31;;;19.43;71.46
60170;BME280;46042;49.444;6.862;2022-08-18T01:09:19;98273.97;;;19.38;69.57
60170;BME280;46042;49.444;6.862;2022-08-18T01:11:46;98270.81;;;19.34;71.42
60170;BME280;46042;49.444;6.862;2022-08-18T01:14:13;98280.50;;;19.35;69.93
60170;BME280;46042;49.444;6.862;2022-08-18T01:16:48;98285.84;;;19.35;70.78
60170;BME280;46042;49.444;6.862;2022-08-18T01:19:34;98291.34;;;19.33;72.11
60170;BME280;46042;49.444;6.862;2022-08-18T01:22:30;98289.16;;;19.29;71.12
60170;BME280;46042;49.444;6.862;2022-08-18T01:25:01;98289.00;;;19.30;72.33
60170;BME280;46042;49.444;6.862;2022-08-18T01:27:51;98290.50;;;19.33;72.69
60170;BME280;46042;49.444;6.862;2022-08-18T01:30:19;98290.69;;;19.31;70.50
60170;BME280;46042;49.444;6.862;2022-08-18T01:32:51;98297.84;;;19.31;72.28
60170;BME280;46042;49.444;6.862;2022-08-18T01:35:23;98295.66;;;19.18;73.91
60170;BME280;46042;49.444;6.862;2022-08-18T01:37:52;98299.88;;;19.21;71.98
60170;BME280;46042;49.444;6.862;2022-08-18T01:40:21;98289.66;;;19.24;71.42
60170;BME280;46042;49.444;6.862;2022-08-18T01:43:09;98297.19;;;19.29;73.72
60170;BME280;46042;49.444;6.862;2022-08-18T01:45:35;98305.38;;;19.27;72.25
60170;BME280;46042;49.444;6.862;2022-08-18T01:48:03;98289.50;;;19.26;71.98
60170;BME280;46042;49.444;6.862;2022-08-18T01:50:30;98299.69;;;19.30;73.44
60170;BME280;46042;49.444;6.862;2022-08-18T01:53:01;98297.84;;;19.31;71.71
60170;BME280;46042;49.444;6.862;2022-08-18T01:55:35;98297.50;;;19.34;74.51
60170;BME280;46042;49.444;6.862;2022-08-18T01:58:03;98301.19;;;19.33;76.31
60170;BME280;46042;49.444;6.862;2022-08-18T02:00:31;98308.38;;;19.32;75.94
60170;BME280;46042;49.444;6.862;2022-08-18T02:02:59;98305.03;;;19.30;76.73
60170;BME280;46042;49.444;6.862;2022-08-18T02:05:35;98308.53;;;19.31;79.03
60170;BME280;46042;49.444;6.862;2022-08-18T02:08:04;98302.53;;;19.29;78.78
60170;BME280;46042;49.444;6.862;2022-08-18T02:10:32;98297.53;;;19.26;78.21
60170;BME280;46042;49.444;6.862;2022-08-18T02:13:00;98290.00;;;19.21;78.02
60170;BME280;46042;49.444;6.862;2022-08-18T02:15:27;98287.16;;;19.14;78.59
60170;BME280;46042;49.444;6.862;2022-08-18T02:17:53;98293.81;;;19.10;78.55
60170;BME280;46042;49.444;6.862;2022-08-18T02:20:20;98291.16;;;19.10;79.54
60170;BME280;46042;49.444;6.862;2022-08-18T02:22:47;98292.31;;;19.08;79.18
60170;BME280;46042;49.444;6.862;2022-08-18T02:25:15;98282.81;;;19.05;76.75
60170;BME280;46042;49.444;6.862;2022-08-18T02:27:43;98287.31;;;19.04;76.76
60170;BME280;46042;49.444;6.862;2022-08-18T02:30:14;98284.81;;;19.03;76.62
60170;BME280;46042;49.444;6.862;2022-08-18T02:32:41;98287.78;;;19.00;76.66
60170;BME280;46042;49.444;6.862;2022-08-18T02:35:09;98279.94;;;18.98;78.12
60170;BME280;46042;49.444;6.862;2022-08-18T02:37:41;98276.28;;;18.99;77.62
60170;BME280;46042;49.444;6.862;2022-08-18T02:40:09;98266.44;;;19.00;78.33
60170;BME280;46042;49.444;6.862;2022-08-18T02:42:41;98279.75;;;18.91;77.53
60170;BME280;46042;49.444;6.862;2022-08-18T02:45:08;98264.91;;;18.89;77.73
60170;BME280;46042;49.444;6.862;2022-08-18T02:47:35;98267.06;;;18.85;77.72
60170;BME280;46042;49.444;6.862;2022-08-18T02:50:03;98268.06;;;18.84;78.63
60170;BME280;46042;49.444;6.862;2022-08-18T02:52:29;98278.06;;;18.82;78.05
60170;BME280;46042;49.444;6.862;2022-08-18T02:55:00;98279.91;;;18.82;77.30
60170;BME280;46042;49.444;6.862;2022-08-18T02:57:28;98277.25;;;18.82;77.35
60170;BME280;46042;49.444;6.862;2022-08-18T02:59:55;98281.56;;;18.83;77.32
60170;BME280;46042;49.444;6.862;2022-08-18T03:02:25;98280.25;;;18.87;79.16
60170;BME280;46042;49.444;6.862;2022-08-18T03:04:51;98286.09;;;18.90;79.48
60170;BME280;46042;49.444;6.862;2022-08-18T03:07:18;98288.91;;;18.89;77.25
60170;BME280;46042;49.444;6.862;2022-08-18T03:09:45;98285.44;;;18.88;77.37
60170;BME280;46042;49.444;6.862;2022-08-18T03:12:11;98290.59;;;18.90;77.55
60170;BME280;46042;49.444;6.862;2022-08-18T03:14:38;98290.59;;;18.90;77.50
60170;BME280;46042;49.444;6.862;2022-08-18T03:17:07;98298.59;;;18.82;79.23
60170;BME280;46042;49.444;6.862;2022-08-18T03:19:35;98299.25;;;18.75;79.18
60170;BME280;46042;49.444;6.862;2022-08-18T03:22:02;98299.25;;;18.75;77.73
60170;BME280;46042;49.444;6.862;2022-08-18T03:24:51;98288.25;;;18.79;78.37
60170;BME280;46042;49.444;6.862;2022-08-18T03:27:18;98294.06;;;18.82;78.16
60170;BME280;46042;49.444;6.862;2022-08-18T03:29:44;98297.44;;;18.84;80.48
60170;BME280;46042;49.444;6.862;2022-08-18T03:32:11;98301.25;;;18.82;80.85
60170;BME280;46042;49.444;6.862;2022-08-18T03:34:37;98299.91;;;18.77;81.28
60170;BME280;46042;49.444;6.862;2022-08-18T03:37:04;98293.91;;;18.75;79.76
60170;BME280;46042;49.444;6.862;2022-08-18T03:39:31;98292.91;;;18.76;79.70
60170;BME280;46042;49.444;6.862;2022-08-18T03:41:58;98284.91;;;18.76;80.36
60170;BME280;46042;49.444;6.862;2022-08-18T03:44:33;98286.25;;;18.81;81.83
60170;BME280;46042;49.444;6.862;2022-08-18T03:47:02;98299.72;;;18.79;79.99
60170;BME280;46042;49.444;6.862;2022-08-18T03:49:29;98296.25;;;18.79;80.97
60170;BME280;46042;49.444;6.862;2022-08-18T03:51:59;98300.91;;;18.76;80.53
60170;BME280;46042;49.444;6.862;2022-08-18T03:54:29;98310.59;;;18.77;80.20
60170;BME280;46042;49.444;6.862;2022-08-18T03:57:00;98307.72;;;18.79;84.90
60170;BME280;46042;49.444;6.862;2022-08-18T03:59:27;98308.41;;;18.81;85.98
60170;BME280;46042;49.444;6.862;2022-08-18T04:01:57;98312.06;;;18.80;85.41
60170;BME280;46042;49.444;6.862;2022-08-18T04:04:26;98319.09;;;18.81;86.63
60170;BME280;46042;49.444;6.862;2022-08-18T04:06:57;98317.41;;;18.80;87.44
60170;BME280;46042;49.444;6.862;2022-08-18T04:09:26;98323.41;;;18.82;87.87
60170;BME280;46042;49.444;6.862;2022-08-18T04:11:55;98308.59;;;18.80;87.71
60170;BME280;46042;49.444;6.862;2022-08-18T04:14:23;98310.59;;;18.77;88.40
60170;BME280;46042;49.444;6.862;2022-08-18T04:16:51;98307.72;;;18.71;88.12
60170;BME280;46042;49.444;6.862;2022-08-18T04:19:18;98306.06;;;18.70;87.72
60170;BME280;46042;49.444;6.862;2022-08-18T04:21:52;98299.53;;;18.64;88.19
60170;BME280;46042;49.444;6.862;2022-08-18T04:24:20;98305.88;;;18.63;88.85
60170;BME280;46042;49.444;6.862;2022-08-18T04:26:47;98298.88;;;18.62;89.21
60170;BME280;46042;49.444;6.862;2022-08-18T04:29:16;98300.69;;;18.61;89.15
60170;BME280;46042;49.444;6.862;2022-08-18T04:31:44;98307.50;;;18.56;89.79
60170;BME280;46042;49.444;6.862;2022-08-18T04:34:11;98312.94;;;18.46;89.87
60170;BME280;46042;49.444;6.862;2022-08-18T04:36:39;98317.53;;;18.27;92.91
60170;BME280;46042;49.444;6.862;2022-08-18T04:39:08;98319.13;;;18.12;94.28
60170;BME280;46042;49.444;6.862;2022-08-18T04:41:37;98319.38;;;18.00;95.70
60170;BME280;46042;49.444;6.862;2022-08-18T04:44:05;98327.97;;;17.94;95.57
60170;BME280;46042;49.444;6.862;2022-08-18T04:46:40;98318.69;;;17.98;95.14
60170;BME280;46042;49.444;6.862;2022-08-18T04:49:07;98316.41;;;18.03;95.32
60170;BME280;46042;49.444;6.862;2022-08-18T04:51:40;98312.75;;;18.04;95.64
60170;BME280;46042;49.444;6.862;2022-08-18T04:54:27;98328.88;;;18.03;96.08
60170;BME280;46042;49.444;6.862;2022-08-18T04:56:54;98339.00;;;17.99;96.40
60170;BME280;46042;49.444;6.862;2022-08-18T04:59:21;98338.84;;;18.01;95.62
60170;BME280;46042;49.444;6.862;2022-08-18T05:01:47;98332.56;;;18.02;95.67
60170;BME280;46042;49.444;6.862;2022-08-18T05:04:16;98335.44;;;18.09;94.65
60170;BME280;46042;49.444;6.862;2022-08-18T05:06:44;98331.63;;;18.11;95.38
60170;BME280;46042;49.444;6.862;2022-08-18T05:09:13;98332.28;;;18.13;93.20
60170;BME280;46042;49.444;6.862;2022-08-18T05:11:42;98334.63;;;18.16;93.55
60170;BME280;46042;49.444;6.862;2022-08-18T05:14:10;98341.31;;;18.20;94.31
60170;BME280;46042;49.444;6.862;2022-08-18T05:16:37;98342.84;;;18.23;95.23
60170;BME280;46042;49.444;6.862;2022-08-18T05:19:16;98342.84;;;18.23;94.93
60170;BME280;46042;49.444;6.862;2022-08-18T05:21:50;98349.69;;;18.26;95.50
60170;BME280;46042;49.444;6.862;2022-08-18T05:24:18;98346.88;;;18.27;95.84
60170;BME280;46042;49.444;6.862;2022-08-18T05:26:47;98345.72;;;18.30;94.73
60170;BME280;46042;49.444;6.862;2022-08-18T05:29:14;98344.72;;;18.31;95.82
60170;BME280;46042;49.444;6.862;2022-08-18T05:31:43;98341.22;;;18.30;95.82
60170;BME280;46042;49.444;6.862;2022-08-18T05:34:11;98336.72;;;18.31;94.26
60170;BME280;46042;49.444;6.862;2022-08-18T05:39:22;98343.06;;;18.30;96.37
60170;BME280;46042;49.444;6.862;2022-08-18T05:42:12;98335.59;;;18.33;95.96
60170;BME280;46042;49.444;6.862;2022-08-18T05:44:43;98342.59;;;18.34;95.82
60170;BME280;46042;49.444;6.862;2022-08-18T05:49:47;98339.59;;;18.38;95.20
60170;BME280;46042;49.444;6.862;2022-08-18T05:52:19;98335.41;;;18.35;95.60
60170;BME280;46042;49.444;6.862;2022-08-18T05:54:52;98342.88;;;18.31;96.61
60170;BME280;46042;49.444;6.862;2022-08-18T05:57:44;98342.06;;;18.31;97.75
60170;BME280;46042;49.444;6.862;2022-08-18T06:00:13;98344.88;;;18.29;96.64
60170;BME280;46042;49.444;6.862;2022-08-18T06:02:48;98342.72;;;18.33;97.17
60170;BME280;46042;49.444;6.862;2022-08-18T06:05:30;98343.41;;;18.35;97.08
60170;BME280;46042;49.444;6.862;2022-08-18T06:08:00;98342.59;;;18.34;98.27
60170;BME280;46042;49.444;6.862;2022-08-18T06:10:30;98333.72;;;18.34;96.47
60170;BME280;46042;49.444;6.862;2022-08-18T06:12:58;98332.28;;;18.40;97.36
60170;BME280;46042;49.444;6.862;2022-08-18T06:18:22;98331.81;;;18.53;98.17
60170;BME280;46042;49.444;6.862;2022-08-18T06:46:45;98351.88;;;18.65;97.91
60170;BME280;46042;49.444;6.862;2022-08-18T06:49:22;98342.75;;;18.68;98.69
60170;BME280;46042;49.444;6.862;2022-08-18T06:51:50;98354.09;;;18.70;97.90
60170;BME280;46042;49.444;6.862;2022-08-18T06:56:50;98348.09;;;18.76;98.63
60170;BME280;46042;49.444;6.862;2022-08-18T06:59:31;98356.44;;;18.81;98.58
60170;BME280;46042;49.444;6.862;2022-08-18T07:02:15;98356.44;;;18.81;98.12
60170;BME280;46042;49.444;6.862;2022-08-18T07:05:00;98359.97;;;18.82;96.26
60170;BME280;46042;49.444;6.862;2022-08-18T07:07:40;98350.81;;;18.84;98.44
60170;BME280;46042;49.444;6.862;2022-08-18T07:12:40;98350.47;;;18.87;99.51
60170;BME280;46042;49.444;6.862;2022-08-18T07:15:11;98350.28;;;18.89;98.46
60170;BME280;46042;49.444;6.862;2022-08-18T07:17:38;98346.63;;;18.90;97.85
60170;BME280;46042;49.444;6.862;2022-08-18T07:20:23;98345.81;;;18.89;97.46
60170;BME280;46042;49.444;6.862;2022-08-18T07:23:01;98339.13;;;18.94;99.36
60170;BME280;46042;49.444;6.862;2022-08-18T07:25:40;98347.22;;;19.02;98.66
60170;BME280;46042;49.444;6.862;2022-08-18T07:28:27;98355.03;;;19.03;99.26
60170;BME280;46042;49.444;6.862;2022-08-18T07:31:08;98350.88;;;19.01;99.64
60170;BME280;46042;49.444;6.862;2022-08-18T07:33:46;98354.03;;;19.04;98.45
60170;BME280;46042;49.444;6.862;2022-08-18T07:36:15;98354.72;;;19.07;98.28
60170;BME280;46042;49.444;6.862;2022-08-18T07:38:50;98360.06;;;19.07;97.86
60170;BME280;46042;49.444;6.862;2022-08-18T07:41:32;98369.44;;;19.11;99.68
60170;BME280;46042;49.444;6.862;2022-08-18T07:47:02;98373.09;;;19.18;96.88
60170;BME280;46042;49.444;6.862;2022-08-18T07:49:34;98372.28;;;19.17;98.05
60170;BME280;46042;49.444;6.862;2022-08-18T07:55:30;98375.94;;;19.16;98.37
60170;BME280;46042;49.444;6.862;2022-08-18T08:00:50;98367.28;;;19.23;99.51
60170;BME280;46042;49.444;6.862;2022-08-18T08:06:19;98364.94;;;19.19;98.82
60170;BME280;46042;49.444;6.862;2022-08-18T08:11:47;98375.63;;;19.28;98.74
60170;BME280;46042;49.444;6.862;2022-08-18T08:22:49;98366.31;;;19.40;100.00
60170;BME280;46042;49.444;6.862;2022-08-18T08:33:55;98363.47;;;19.50;100.00
60170;BME280;46042;49.444;6.862;2022-08-18T08:36:31;98360.66;;;19.52;99.93
60170;BME280;46042;49.444;6.862;2022-08-18T08:39:10;98362.47;;;19.59;100.00
60170;BME280;46042;49.444;6.862;2022-08-18T08:44:25;98362.16;;;19.71;98.71
60170;BME280;46042;49.444;6.862;2022-08-18T08:46:56;98365.47;;;19.73;99.87
60170;BME280;46042;49.444;6.862;2022-08-18T08:51:58;98369.16;;;19.72;96.39
60170;BME280;46042;49.444;6.862;2022-08-18T08:54:52;98380.19;;;19.69;95.32
60170;BME280;46042;49.444;6.862;2022-08-18T08:57:26;98377.84;;;19.66;93.74
60170;BME280;46042;49.444;6.862;2022-08-18T08:59:56;98373.34;;;19.74;94.74
60170;BME280;46042;49.444;6.862;2022-08-18T09:02:36;98377.84;;;19.82;97.13
60170;BME280;46042;49.444;6.862;2022-08-18T09:05:27;98387.03;;;19.88;96.12
60170;BME280;46042;49.444;6.862;2022-08-18T09:10:51;98370.00;;;19.97;97.31
60170;BME280;46042;49.444;6.862;2022-08-18T09:16:47;98373.16;;;20.09;95.15
60170;BME280;46042;49.444;6.862;2022-08-18T09:24:39;98375.53;;;20.12;93.22
60170;BME280;46042;49.444;6.862;2022-08-18T09:29:52;98374.50;;;20.30;92.92
60170;BME280;46042;49.444;6.862;2022-08-18T09:38:05;98360.66;;;20.66;97.84
60170;BME280;46042;49.444;6.862;2022-08-18T09:41:03;98358.41;;;20.95;97.79
60170;BME280;46042;49.444;6.862;2022-08-18T09:44:08;98354.38;;;21.22;95.35
60170;BME280;46042;49.444;6.862;2022-08-18T09:46:57;98352.09;;;21.42;92.04
60170;BME280;46042;49.444;6.862;2022-08-18T09:54:59;98348.31;;;21.52;89.11
60170;BME280;46042;49.444;6.862;2022-08-18T09:57:30;98347.63;;;21.58;88.24
60170;BME280;46042;49.444;6.862;2022-08-18T10:05:26;98304.38;;;23.11;91.54
60170;BME280;46042;49.444;6.862;2022-08-18T10:10:53;98317.97;;;23.10;85.11
60170;BME280;46042;49.444;6.862;2022-08-18T10:22:07;98308.47;;;25.67;84.46
60170;BME280;46042;49.444;6.862;2022-08-18T10:25:05;98313.75;;;25.07;69.59
60170;BME280;46042;49.444;6.862;2022-08-18T10:27:52;98316.63;;;24.92;71.48
60170;BME280;46042;49.444;6.862;2022-08-18T10:39:18;98317.34;;;24.72;69.33
60170;BME280;46042;49.444;6.862;2022-08-18T10:42:24;98322.41;;;24.89;79.68
60170;BME280;46042;49.444;6.862;2022-08-18T10:45:27;98329.28;;;24.98;75.61
60170;BME280;46042;49.444;6.862;2022-08-18T11:03:01;98378.94;;;23.68;70.77
60170;BME280;46042;49.444;6.862;2022-08-18T11:06:05;98383.38;;;23.54;75.02
60170;BME280;46042;49.444;6.862;2022-08-18T11:08:49;98382.41;;;23.40;74.16
60170;BME280;46042;49.444;6.862;2022-08-18T11:15:03;98363.34;;;23.20;75.39
60170;BME280;46042;49.444;6.862;2022-08-18T11:20:40;98337.28;;;23.35;75.38
60170;BME280;46042;49.444;6.862;2022-08-18T11:23:16;98340.69;;;23.44;76.48
60170;BME280;46042;49.444;6.862;2022-08-18T11:25:45;98330.53;;;23.68;74.28
60170;BME280;46042;49.444;6.862;2022-08-18T11:28:21;98321.25;;;23.99;75.94
60170;BME280;46042;49.444;6.862;2022-08-18T11:31:09;98312.25;;;24.07;67.77
60170;BME280;46042;49.444;6.862;2022-08-18T11:33:39;98313.09;;;23.85;69.87
60170;BME280;46042;49.444;6.862;2022-08-18T11:36:08;98323.78;;;24.00;74.36
60170;BME280;46042;49.444;6.862;2022-08-18T11:38:36;98331.13;;;24.13;72.29
60170;BME280;46042;49.444;6.862;2022-08-18T11:41:19;98326.72;;;24.06;67.70
60170;BME280;46042;49.444;6.862;2022-08-18T11:43:57;98331.94;;;24.07;74.54
60170;BME280;46042;49.444;6.862;2022-08-18T11:46:31;98331.53;;;24.10;71.42
60170;BME280;46042;49.444;6.862;2022-08-18T11:49:17;98328.25;;;24.15;70.18
60170;BME280;46042;49.444;6.862;2022-08-18T11:52:00;98322.06;;;24.21;77.12
60170;BME280;46042;49.444;6.862;2022-08-18T11:54:37;98314.84;;;24.28;75.26
60170;BME280;46042;49.444;6.862;2022-08-18T11:58:09;98318.34;;;24.22;66.91
60170;BME280;46042;49.444;6.862;2022-08-18T12:03:33;98299.59;;;23.79;67.81
60170;BME280;46042;49.444;6.862;2022-08-18T12:06:37;98304.75;;;24.02;73.24
60170;BME280;46042;49.444;6.862;2022-08-18T12:09:22;98309.28;;;24.01;66.22
60170;BME280;46042;49.444;6.862;2022-08-18T12:12:25;98299.25;;;24.10;72.17
60170;BME280;46042;49.444;6.862;2022-08-18T12:17:58;98293.84;;;24.46;72.42
60170;BME280;46042;49.444;6.862;2022-08-18T12:20:26;98279.78;;;24.50;72.29
60170;BME280;46042;49.444;6.862;2022-08-18T12:22:55;98285.59;;;24.61;76.94
60170;BME280;46042;49.444;6.862;2022-08-18T12:25:22;98288.09;;;24.62;72.50
60170;BME280;46042;49.444;6.862;2022-08-18T12:27:50;98290.84;;;24.69;71.80
60170;BME280;46042;49.444;6.862;2022-08-18T12:30:17;98293.94;;;24.66;67.34
60170;BME280;46042;49.444;6.862;2022-08-18T12:32:44;98295.81;;;24.72;72.96
60170;BME280;46042;49.444;6.862;2022-08-18T12:35:31;98289.78;;;24.70;70.67
60170;BME280;46042;49.444;6.862;2022-08-18T12:38:00;98301.38;;;24.70;66.60
60170;BME280;46042;49.444;6.862;2022-08-18T12:40:47;98298.50;;;24.72;66.58
60170;BME280;46042;49.444;6.862;2022-08-18T12:43:13;98282.53;;;24.70;64.67
60170;BME280;46042;49.444;6.862;2022-08-18T12:45:41;98289.44;;;24.80;70.54
60170;BME280;46042;49.444;6.862;2022-08-18T12:48:08;98274.94;;;24.81;65.97
60170;BME280;46042;49.444;6.862;2022-08-18T12:50:36;98271.22;;;24.82;66.37
60170;BME280;46042;49.444;6.862;2022-08-18T12:53:23;98281.16;;;24.88;63.44
60170;BME280;46042;49.444;6.862;2022-08-18T12:56:13;98288.03;;;24.91;65.25
60170;BME280;46042;49.444;6.862;2022-08-18T12:58:45;98291.22;;;24.59;66.13
60170;BME280;46042;49.444;6.862;2022-08-18T13:01:11;98291.25;;;24.66;69.48
60170;BME280;46042;49.444;6.862;2022-08-18T13:03:42;98295.59;;;24.67;64.64
60170;BME280;46042;49.444;6.862;2022-08-18T13:06:30;98290.97;;;24.54;62.89
60170;BME280;46042;49.444;6.862;2022-08-18T13:09:00;98289.75;;;24.63;68.75
60170;BME280;46042;49.444;6.862;2022-08-18T13:11:26;98289.34;;;24.66;69.09
60170;BME280;46042;49.444;6.862;2022-08-18T13:13:55;98285.84;;;24.72;67.28
60170;BME280;46042;49.444;6.862;2022-08-18T13:16:24;98287.16;;;24.77;66.48
60170;BME280;46042;49.444;6.862;2022-08-18T13:19:06;98287.72;;;24.72;68.60
60170;BME280;46042;49.444;6.862;2022-08-18T13:21:36;98284.28;;;24.85;68.89
60170;BME280;46042;49.444;6.862;2022-08-18T13:24:07;98272.56;;;24.64;63.24
60170;BME280;46042;49.444;6.862;2022-08-18T13:26:38;98268.66;;;24.74;63.15
60170;BME280;46042;49.444;6.862;2022-08-18T13:29:07;98269.88;;;24.64;63.18
60170;BME280;46042;49.444;6.862;2022-08-18T13:31:36;98276.94;;;24.72;68.10
60170;BME280;46042;49.444;6.862;2022-08-18T13:34:04;98268.72;;;24.87;65.66
60170;BME280;46042;49.444;6.862;2022-08-18T13:36:40;98271.88;;;24.97;63.81
60170;BME280;46042;49.444;6.862;2022-08-18T13:39:21;98260.66;;;24.87;63.28
60170;BME280;46042;49.444;6.862;2022-08-18T13:41:52;98273.94;;;24.89;63.63
60170;BME280;46042;49.444;6.862;2022-08-18T13:44:21;98261.31;;;25.03;61.33
60170;BME280;46042;49.444;6.862;2022-08-18T13:46:52;98268.38;;;25.10;59.08
60170;BME280;46042;49.444;6.862;2022-08-18T13:49:22;98261.97;;;25.38;62.29
60170;BME280;46042;49.444;6.862;2022-08-18T13:51:56;98250.38;;;25.51;59.25
60170;BME280;46042;49.444;6.862;2022-08-18T13:54:29;98255.13;;;25.83;65.34
60170;BME280;46042;49.444;6.862;2022-08-18T13:57:01;98249.34;;;25.79;60.19
60170;BME280;46042;49.444;6.862;2022-08-18T13:59:28;98254.72;;;25.86;60.83
60170;BME280;46042;49.444;6.862;2022-08-18T14:02:00;98248.06;;;25.95;60.01
60170;BME280;46042;49.444;6.862;2022-08-18T14:04:27;98242.63;;;26.09;63.19
60170;BME280;46042;49.444;6.862;2022-08-18T14:06:55;98240.13;;;26.07;59.13
60170;BME280;46042;49.444;6.862;2022-08-18T14:09:28;98242.69;;;25.75;54.23
60170;BME280;46042;49.444;6.862;2022-08-18T14:12:06;98242.91;;;25.74;56.72
60170;BME280;46042;49.444;6.862;2022-08-18T14:14:49;98241.41;;;26.05;56.26
60170;BME280;46042;49.444;6.862;2022-08-18T14:17:19;98229.06;;;26.36;53.62
60170;BME280;46042;49.444;6.862;2022-08-18T14:19:49;98229.44;;;26.46;56.90
60170;BME280;46042;49.444;6.862;2022-08-18T14:22:40;98242.94;;;26.46;55.86
60170;BME280;46042;49.444;6.862;2022-08-18T14:25:29;98236.78;;;26.25;54.86
60170;BME280;46042;49.444;6.862;2022-08-18T14:28:14;98234.34;;;26.04;55.41
60170;BME280;46042;49.444;6.862;2022-08-18T14:30:51;98229.94;;;26.09;56.02
60170;BME280;46042;49.444;6.862;2022-08-18T14:33:22;98223.81;;;26.54;55.76
60170;BME280;46042;49.444;6.862;2022-08-18T14:36:10;98228.72;;;27.03;56.64
60170;BME280;46042;49.444;6.862;2022-08-18T14:38:38;98228.31;;;27.32;56.67
60170;BME280;46042;49.444;6.862;2022-08-18T14:41:09;98227.31;;;27.26;52.23
60170;BME280;46042;49.444;6.862;2022-08-18T14:43:38;98222.13;;;27.24;52.39
60170;BME280;46042;49.444;6.862;2022-08-18T14:46:25;98218.13;;;27.59;51.37
60170;BME280;46042;49.444;6.862;2022-08-18T14:48:58;98222.34;;;27.74;51.55
60170;BME280;46042;49.444;6.862;2022-08-18T14:51:30;98214.84;;;27.94;54.08
60170;BME280;46042;49.444;6.862;2022-08-18T14:53:59;98216.47;;;27.58;50.31
60170;BME280;46042;49.444;6.862;2022-08-18T14:56:27;98203.84;;;27.71;51.15
60170;BME280;46042;49.444;6.862;2022-08-18T14:58:57;98213.19;;;27.75;50.43
60170;BME280;46042;49.444;6.862;2022-08-18T15:01:26;98210.09;;;27.71;50.26
60170;BME280;46042;49.444;6.862;2022-08-18T15:04:00;98217.91;;;27.79;48.00
60170;BME280;46042;49.444;6.862;2022-08-18T15:06:48;98211.03;;;28.02;49.20
60170;BME280;46042;49.444;6.862;2022-08-18T15:09:26;98217.72;;;27.56;46.10
60170;BME280;46042;49.444;6.862;2022-08-18T15:11:57;98228.16;;;27.96;50.50
60170;BME280;46042;49.444;6.862;2022-08-18T15:14:26;98222.97;;;27.94;47.52
60170;BME280;46042;49.444;6.862;2022-08-18T15:17:00;98213.56;;;28.16;47.34
60170;BME280;46042;49.444;6.862;2022-08-18T15:19:27;98211.56;;;28.30;47.21
60170;BME280;46042;49.444;6.862;2022-08-18T15:22:14;98211.22;;;28.38;47.35
60170;BME280;46042;49.444;6.862;2022-08-18T15:25:01;98212.16;;;28.32;46.21
60170;BME280;46042;49.444;6.862;2022-08-18T15:28:00;98209.78;;;27.98;44.75
60170;BME280;46042;49.444;6.862;2022-08-18T15:30:30;98219.66;;;27.92;47.13
60170;BME280;46042;49.444;6.862;2022-08-18T15:32:57;98211.56;;;28.30;49.78
60170;BME280;46042;49.444;6.862;2022-08-18T15:35:29;98212.03;;;28.27;43.94
60170;BME280;46042;49.444;6.862;2022-08-18T15:37:56;98213.41;;;28.10;45.38
60170;BME280;46042;49.444;6.862;2022-08-18T15:40:25;98212.13;;;27.76;45.99
60170;BME280;46042;49.444;6.862;2022-08-18T15:43:05;98213.00;;;27.69;46.41
60170;BME280;46042;49.444;6.862;2022-08-18T15:45:38;98205.94;;;27.43;45.63
60170;BME280;46042;49.444;6.862;2022-08-18T15:48:23;98211.59;;;27.42;47.00
60170;BME280;46042;49.444;6.862;2022-08-18T15:50:51;98205.94;;;27.43;46.93
60170;BME280;46042;49.444;6.862;2022-08-18T15:53:21;98208.34;;;27.58;45.78
60170;BME280;46042;49.444;6.862;2022-08-18T15:55:48;98207.38;;;27.46;44.06
60170;BME280;46042;49.444;6.862;2022-08-18T15:58:17;98204.75;;;27.39;47.31
60170;BME280;46042;49.444;6.862;2022-08-18T16:00:51;98203.91;;;27.38;47.52
60170;BME280;46042;49.444;6.862;2022-08-18T16:03:19;98202.47;;;27.36;45.50
60170;BME280;46042;49.444;6.862;2022-08-18T16:05:52;98205.28;;;27.48;48.73
60170;BME280;46042;49.444;6.862;2022-08-18T16:08:24;98205.69;;;27.51;46.97
60170;BME280;46042;49.444;6.862;2022-08-18T16:10:52;98204.66;;;27.52;47.38